Terminal Aerodrome Forecast
Issued by NWS

Home | Current Version | Previous Version | Text Only | Print | Product List | Glossary On
Versions: 1 2 3 4 5 6 7 8 9 10 11 12 13 14 15 16 17 18 19 20 21 22 23 24 25 26 27 28 29 30
000
FTUS46 KMTR 241720
TAFSTS
TAF
KSTS 241720Z 2418/2518 17009KT P6SM FEW030 BKN200
     FM250300 14004KT P6SM SCT040 BKN100
     FM250600 13003KT P6SM -SHRA SCT015 BKN035 OVC050
     FM250800 14006KT 6SM -RA BR SCT010 BKN015 OVC025=

USA.gov is the U.S. government's official web portal to all federal, state and local government web resources and services.